createdAt,value
2022-08-23T00:08:03.959Z,50.7
2022-08-23T00:23:13.612Z,50.8
2022-08-23T00:38:35.945Z,51
2022-08-23T00:53:46.023Z,51.2
2022-08-23T01:08:55.435Z,51.3
2022-08-23T01:24:04.990Z,51.5
2022-08-23T01:39:18.202Z,51.8
2022-08-23T01:54:27.546Z,51.3
2022-08-23T02:09:37.612Z,51.8
2022-08-23T02:24:46.890Z,52
2022-08-23T02:39:59.211Z,52.2
2022-08-23T02:55:11.126Z,52.4
2022-08-23T03:10:20.379Z,52.6
2022-08-23T03:25:29.843Z,52.8
2022-08-23T03:40:39.165Z,53
2022-08-23T03:55:48.614Z,53.3
2022-08-23T04:10:58.327Z,53.3
2022-08-23T04:26:12.935Z,53.3
2022-08-23T04:42:37.929Z,53.5
2022-08-23T04:57:49.079Z,54
2022-08-23T05:13:17.328Z,53.9
2022-08-23T05:28:27.127Z,54
2022-08-23T05:43:36.674Z,53.9
2022-08-23T05:58:46.117Z,54
2022-08-23T06:13:56.234Z,55.2
2022-08-23T06:29:06.525Z,54
2022-08-23T06:44:17.364Z,54.1
2022-08-23T06:59:26.391Z,53.9
2022-08-23T07:14:36.097Z,53.8
2022-08-23T07:29:46.133Z,53.7
2022-08-23T07:45:10.166Z,53.5
2022-08-23T08:00:20.674Z,53.7
2022-08-23T08:15:30.332Z,53.1
2022-08-23T08:30:40.368Z,52.9
2022-08-23T08:45:59.880Z,52.7
2022-08-23T09:01:09.903Z,52.5
2022-08-23T09:16:23.020Z,52.1
2022-08-23T09:31:36.784Z,51.8
2022-08-23T09:46:46.394Z,51.4
2022-08-23T10:01:56.228Z,51.1
2022-08-23T10:17:06.914Z,50.5
2022-08-23T10:32:17.573Z,50.3
2022-08-23T10:47:27.546Z,50
2022-08-23T11:02:37.883Z,49.7
2022-08-23T11:17:46.971Z,49.2
2022-08-23T11:33:02.369Z,48.8
2022-08-23T11:48:11.855Z,48.4
2022-08-23T12:03:22.519Z,47.8
2022-08-23T12:18:34.142Z,43
2022-08-23T12:33:46.224Z,44.6
2022-08-23T12:48:56.030Z,44.4
2022-08-23T13:04:06.774Z,43.9
2022-08-23T13:19:19.273Z,43.5
2022-08-23T13:34:31.617Z,43.1
2022-08-23T13:49:42.624Z,42.5
2022-08-23T14:04:57.459Z,41.8
2022-08-23T14:20:46.826Z,41.7
2022-08-23T14:35:58.578Z,40.7
2022-08-23T14:51:07.152Z,40.9
2022-08-23T15:06:16.875Z,40.2
2022-08-23T15:21:26.733Z,40
2022-08-23T15:36:36.881Z,40.1
2022-08-23T15:51:45.101Z,41.3
2022-08-23T16:06:53.365Z,42.7
2022-08-23T16:22:02.671Z,43.2
2022-08-23T16:37:11.911Z,43.4
2022-08-23T16:52:35.351Z,43.6
2022-08-23T17:07:44.772Z,43.7
2022-08-23T17:22:53.794Z,43.7
2022-08-23T17:38:02.579Z,43.8
2022-08-23T17:53:12.708Z,44.3
2022-08-23T18:08:21.165Z,44
2022-08-23T18:23:30.185Z,44.2
2022-08-23T18:38:39.513Z,44.3
2022-08-23T18:53:48.863Z,44.5
2022-08-23T19:08:57.520Z,44.7
2022-08-23T19:24:10.363Z,44.8
2022-08-23T19:39:19.372Z,44.9
2022-08-23T19:54:28.575Z,44.6
2022-08-23T20:09:38.708Z,45.1
2022-08-23T20:24:53.820Z,45.2
2022-08-23T20:40:03.664Z,45.3
2022-08-23T20:55:13.595Z,45.4
2022-08-23T21:10:22.756Z,45.4
2022-08-23T21:25:31.498Z,45.5
2022-08-23T21:40:40.882Z,45.7
2022-08-23T21:55:54.106Z,45.8
2022-08-23T22:11:03.213Z,46
2022-08-23T22:26:12.328Z,46.2
2022-08-23T22:41:21.991Z,46.3
2022-08-23T22:56:31.064Z,46.5
2022-08-23T23:11:40.871Z,46.7
2022-08-23T23:26:50.464Z,46.9
2022-08-23T23:41:59.079Z,47.1
2022-08-23T23:57:08.607Z,47.3
